sensor_id;sensor_type;location;lat;lon;timestamp;P1;durP1;ratioP1;P2;durP2;ratioP2
15490;SDS011;7847;50.930;4.336;2023-10-09T00:01:25;0.20;;;0.20;;
15490;SDS011;7847;50.930;4.336;2023-10-09T00:03:51;0.20;;;0.20;;
15490;SDS011;7847;50.930;4.336;2023-10-09T00:06:21;0.20;;;0.20;;
15490;SDS011;7847;50.930;4.336;2023-10-09T00:09:02;0.20;;;0.20;;
15490;SDS011;7847;50.930;4.336;2023-10-09T00:11:42;0.20;;;0.20;;
15490;SDS011;7847;50.930;4.336;2023-10-09T00:14:09;0.20;;;0.20;;
15490;SDS011;7847;50.930;4.336;2023-10-09T00:16:36;0.20;;;0.20;;
15490;SDS011;7847;50.930;4.336;2023-10-09T00:19:08;0.20;;;0.20;;
15490;SDS011;7847;50.930;4.336;2023-10-09T00:21:55;0.20;;;0.20;;
15490;SDS011;7847;50.930;4.336;2023-10-09T00:24:23;0.20;;;0.20;;
15490;SDS011;7847;50.930;4.336;2023-10-09T00:26:53;0.20;;;0.20;;
15490;SDS011;7847;50.930;4.336;2023-10-09T00:29:36;0.20;;;0.20;;
15490;SDS011;7847;50.930;4.336;2023-10-09T00:32:08;0.20;;;0.20;;
15490;SDS011;7847;50.930;4.336;2023-10-09T00:34:52;0.20;;;0.20;;
15490;SDS011;7847;50.930;4.336;2023-10-09T00:37:23;0.20;;;0.20;;
15490;SDS011;7847;50.930;4.336;2023-10-09T00:39:50;0.20;;;0.20;;
15490;SDS011;7847;50.930;4.336;2023-10-09T00:42:26;0.20;;;0.20;;
15490;SDS011;7847;50.930;4.336;2023-10-09T00:44:58;0.20;;;0.20;;
15490;SDS011;7847;50.930;4.336;2023-10-09T00:47:32;0.20;;;0.20;;
15490;SDS011;7847;50.930;4.336;2023-10-09T00:50:06;0.20;;;0.20;;
15490;SDS011;7847;50.930;4.336;2023-10-09T00:52:44;0.20;;;0.20;;
15490;SDS011;7847;50.930;4.336;2023-10-09T00:55:17;0.20;;;0.20;;
15490;SDS011;7847;50.930;4.336;2023-10-09T00:57:52;0.20;;;0.20;;
15490;SDS011;7847;50.930;4.336;2023-10-09T01:00:22;0.20;;;0.20;;
15490;SDS011;7847;50.930;4.336;2023-10-09T01:03:00;0.20;;;0.20;;
15490;SDS011;7847;50.930;4.336;2023-10-09T01:05:44;0.20;;;0.20;;
15490;SDS011;7847;50.930;4.336;2023-10-09T01:08:20;0.20;;;0.20;;
15490;SDS011;7847;50.930;4.336;2023-10-09T01:11:12;0.20;;;0.20;;
15490;SDS011;7847;50.930;4.336;2023-10-09T01:13:45;0.20;;;0.20;;
15490;SDS011;7847;50.930;4.336;2023-10-09T01:16:11;0.10;;;0.10;;
15490;SDS011;7847;50.930;4.336;2023-10-09T01:18:43;0.20;;;0.20;;
15490;SDS011;7847;50.930;4.336;2023-10-09T01:21:10;0.30;;;0.30;;
15490;SDS011;7847;50.930;4.336;2023-10-09T01:23:42;0.20;;;0.20;;
15490;SDS011;7847;50.930;4.336;2023-10-09T01:26:31;0.20;;;0.20;;
15490;SDS011;7847;50.930;4.336;2023-10-09T01:29:02;0.20;;;0.20;;
15490;SDS011;7847;50.930;4.336;2023-10-09T01:31:28;0.20;;;0.20;;
15490;SDS011;7847;50.930;4.336;2023-10-09T01:34:08;0.20;;;0.20;;
15490;SDS011;7847;50.930;4.336;2023-10-09T01:36:35;0.20;;;0.20;;
15490;SDS011;7847;50.930;4.336;2023-10-09T01:39:04;0.20;;;0.20;;
15490;SDS011;7847;50.930;4.336;2023-10-09T01:41:35;0.20;;;0.20;;
15490;SDS011;7847;50.930;4.336;2023-10-09T01:44:11;0.20;;;0.20;;
15490;SDS011;7847;50.930;4.336;2023-10-09T01:46:37;0.20;;;0.20;;
15490;SDS011;7847;50.930;4.336;2023-10-09T01:49:03;0.20;;;0.20;;
15490;SDS011;7847;50.930;4.336;2023-10-09T01:51:33;0.20;;;0.20;;
15490;SDS011;7847;50.930;4.336;2023-10-09T01:54:01;0.20;;;0.20;;
15490;SDS011;7847;50.930;4.336;2023-10-09T01:56:27;0.20;;;0.20;;
15490;SDS011;7847;50.930;4.336;2023-10-09T01:58:54;0.20;;;0.20;;
15490;SDS011;7847;50.930;4.336;2023-10-09T02:01:22;0.20;;;0.20;;
15490;SDS011;7847;50.930;4.336;2023-10-09T02:03:49;0.20;;;0.20;;
15490;SDS011;7847;50.930;4.336;2023-10-09T02:06:17;0.20;;;0.20;;
15490;SDS011;7847;50.930;4.336;2023-10-09T02:08:54;0.20;;;0.20;;
15490;SDS011;7847;50.930;4.336;2023-10-09T02:11:21;0.20;;;0.20;;
15490;SDS011;7847;50.930;4.336;2023-10-09T02:14:01;0.20;;;0.20;;
15490;SDS011;7847;50.930;4.336;2023-10-09T02:16:30;0.20;;;0.20;;
15490;SDS011;7847;50.930;4.336;2023-10-09T02:19:06;0.20;;;0.20;;
15490;SDS011;7847;50.930;4.336;2023-10-09T02:21:56;0.28;;;0.28;;
15490;SDS011;7847;50.930;4.336;2023-10-09T02:24:23;0.20;;;0.20;;
15490;SDS011;7847;50.930;4.336;2023-10-09T02:27:07;0.20;;;0.20;;
15490;SDS011;7847;50.930;4.336;2023-10-09T02:29:33;0.20;;;0.20;;
15490;SDS011;7847;50.930;4.336;2023-10-09T02:32:03;0.20;;;0.20;;
15490;SDS011;7847;50.930;4.336;2023-10-09T02:34:39;0.20;;;0.20;;
15490;SDS011;7847;50.930;4.336;2023-10-09T02:37:05;0.20;;;0.20;;
15490;SDS011;7847;50.930;4.336;2023-10-09T02:39:37;0.20;;;0.20;;
15490;SDS011;7847;50.930;4.336;2023-10-09T02:42:13;0.20;;;0.20;;
15490;SDS011;7847;50.930;4.336;2023-10-09T02:44:39;0.20;;;0.20;;
15490;SDS011;7847;50.930;4.336;2023-10-09T02:47:11;0.20;;;0.20;;
15490;SDS011;7847;50.930;4.336;2023-10-09T02:49:43;0.20;;;0.20;;
15490;SDS011;7847;50.930;4.336;2023-10-09T02:52:10;0.20;;;0.20;;
15490;SDS011;7847;50.930;4.336;2023-10-09T02:54:38;0.20;;;0.20;;
15490;SDS011;7847;50.930;4.336;2023-10-09T02:57:06;0.20;;;0.20;;
15490;SDS011;7847;50.930;4.336;2023-10-09T02:59:33;0.20;;;0.20;;
15490;SDS011;7847;50.930;4.336;2023-10-09T03:02:00;0.20;;;0.20;;
15490;SDS011;7847;50.930;4.336;2023-10-09T03:04:26;0.20;;;0.20;;
15490;SDS011;7847;50.930;4.336;2023-10-09T03:06:54;0.20;;;0.20;;
15490;SDS011;7847;50.930;4.336;2023-10-09T03:09:22;0.20;;;0.20;;
15490;SDS011;7847;50.930;4.336;2023-10-09T03:11:52;0.30;;;0.30;;
15490;SDS011;7847;50.930;4.336;2023-10-09T03:14:19;0.20;;;0.20;;
15490;SDS011;7847;50.930;4.336;2023-10-09T03:16:46;0.20;;;0.20;;
15490;SDS011;7847;50.930;4.336;2023-10-09T03:19:14;0.20;;;0.20;;
15490;SDS011;7847;50.930;4.336;2023-10-09T03:21:40;0.20;;;0.20;;
15490;SDS011;7847;50.930;4.336;2023-10-09T03:24:06;0.20;;;0.20;;
15490;SDS011;7847;50.930;4.336;2023-10-09T03:26:33;0.20;;;0.20;;
15490;SDS011;7847;50.930;4.336;2023-10-09T03:28:59;0.20;;;0.20;;
15490;SDS011;7847;50.930;4.336;2023-10-09T03:31:34;0.20;;;0.20;;
15490;SDS011;7847;50.930;4.336;2023-10-09T03:34:01;0.20;;;0.20;;
15490;SDS011;7847;50.930;4.336;2023-10-09T03:36:27;0.20;;;0.20;;
15490;SDS011;7847;50.930;4.336;2023-10-09T03:38:55;0.20;;;0.20;;
15490;SDS011;7847;50.930;4.336;2023-10-09T03:41:23;0.20;;;0.20;;
15490;SDS011;7847;50.930;4.336;2023-10-09T03:43:51;0.20;;;0.20;;
15490;SDS011;7847;50.930;4.336;2023-10-09T03:46:19;0.20;;;0.20;;
15490;SDS011;7847;50.930;4.336;2023-10-09T03:48:49;0.20;;;0.20;;
15490;SDS011;7847;50.930;4.336;2023-10-09T03:51:22;0.20;;;0.20;;
15490;SDS011;7847;50.930;4.336;2023-10-09T03:53:49;0.20;;;0.20;;
15490;SDS011;7847;50.930;4.336;2023-10-09T03:56:16;0.30;;;0.30;;
15490;SDS011;7847;50.930;4.336;2023-10-09T03:58:46;0.30;;;0.30;;
15490;SDS011;7847;50.930;4.336;2023-10-09T04:01:15;0.20;;;0.20;;
15490;SDS011;7847;50.930;4.336;2023-10-09T04:03:52;0.20;;;0.20;;
15490;SDS011;7847;50.930;4.336;2023-10-09T04:06:25;0.20;;;0.20;;
15490;SDS011;7847;50.930;4.336;2023-10-09T04:08:55;0.20;;;0.20;;
15490;SDS011;7847;50.930;4.336;2023-10-09T04:11:23;0.20;;;0.20;;
15490;SDS011;7847;50.930;4.336;2023-10-09T04:13:50;0.20;;;0.20;;
15490;SDS011;7847;50.930;4.336;2023-10-09T04:16:18;0.20;;;0.20;;
15490;SDS011;7847;50.930;4.336;2023-10-09T04:18:56;0.20;;;0.20;;
15490;SDS011;7847;50.930;4.336;2023-10-09T04:21:23;0.20;;;0.20;;
15490;SDS011;7847;50.930;4.336;2023-10-09T04:24:02;0.25;;;0.25;;
15490;SDS011;7847;50.930;4.336;2023-10-09T04:26:34;0.20;;;0.20;;
15490;SDS011;7847;50.930;4.336;2023-10-09T04:29:02;0.20;;;0.20;;
15490;SDS011;7847;50.930;4.336;2023-10-09T04:31:28;0.20;;;0.20;;
15490;SDS011;7847;50.930;4.336;2023-10-09T04:34:00;0.20;;;0.20;;
15490;SDS011;7847;50.930;4.336;2023-10-09T04:36:44;0.20;;;0.20;;
15490;SDS011;7847;50.930;4.336;2023-10-09T04:39:22;0.20;;;0.20;;
15490;SDS011;7847;50.930;4.336;2023-10-09T04:42:01;0.20;;;0.20;;
15490;SDS011;7847;50.930;4.336;2023-10-09T04:44:51;0.20;;;0.20;;
15490;SDS011;7847;50.930;4.336;2023-10-09T04:47:30;0.20;;;0.20;;
15490;SDS011;7847;50.930;4.336;2023-10-09T04:50:06;0.20;;;0.20;;
15490;SDS011;7847;50.930;4.336;2023-10-09T04:52:51;0.30;;;0.30;;
15490;SDS011;7847;50.930;4.336;2023-10-09T04:55:17;0.20;;;0.20;;
15490;SDS011;7847;50.930;4.336;2023-10-09T04:57:45;0.20;;;0.20;;
15490;SDS011;7847;50.930;4.336;2023-10-09T05:00:25;0.20;;;0.20;;
15490;SDS011;7847;50.930;4.336;2023-10-09T05:02:52;0.20;;;0.20;;
15490;SDS011;7847;50.930;4.336;2023-10-09T05:05:39;0.20;;;0.20;;
15490;SDS011;7847;50.930;4.336;2023-10-09T05:08:12;0.20;;;0.20;;
15490;SDS011;7847;50.930;4.336;2023-10-09T05:10:47;0.20;;;0.20;;
15490;SDS011;7847;50.930;4.336;2023-10-09T05:13:29;0.20;;;0.20;;
15490;SDS011;7847;50.930;4.336;2023-10-09T05:16:11;0.20;;;0.20;;
15490;SDS011;7847;50.930;4.336;2023-10-09T05:18:43;0.20;;;0.20;;
15490;SDS011;7847;50.930;4.336;2023-10-09T05:21:13;0.20;;;0.20;;
15490;SDS011;7847;50.930;4.336;2023-10-09T05:24:01;0.20;;;0.20;;
15490;SDS011;7847;50.930;4.336;2023-10-09T05:26:46;0.22;;;0.22;;
15490;SDS011;7847;50.930;4.336;2023-10-09T05:29:12;0.20;;;0.20;;
15490;SDS011;7847;50.930;4.336;2023-10-09T05:31:51;0.30;;;0.30;;
15490;SDS011;7847;50.930;4.336;2023-10-09T05:34:37;0.20;;;0.20;;
15490;SDS011;7847;50.930;4.336;2023-10-09T05:37:22;0.20;;;0.20;;
15490;SDS011;7847;50.930;4.336;2023-10-09T05:39:54;0.20;;;0.20;;
15490;SDS011;7847;50.930;4.336;2023-10-09T05:42:30;0.20;;;0.20;;
15490;SDS011;7847;50.930;4.336;2023-10-09T05:45:05;0.20;;;0.20;;
15490;SDS011;7847;50.930;4.336;2023-10-09T05:47:50;0.20;;;0.20;;
15490;SDS011;7847;50.930;4.336;2023-10-09T05:52:55;0.20;;;0.20;;
15490;SDS011;7847;50.930;4.336;2023-10-09T05:55:22;0.20;;;0.20;;
15490;SDS011;7847;50.930;4.336;2023-10-09T05:58:07;0.20;;;0.20;;
15490;SDS011;7847;50.930;4.336;2023-10-09T06:00:52;0.20;;;0.20;;
15490;SDS011;7847;50.930;4.336;2023-10-09T06:03:36;0.20;;;0.20;;
15490;SDS011;7847;50.930;4.336;2023-10-09T06:06:18;0.20;;;0.20;;
15490;SDS011;7847;50.930;4.336;2023-10-09T06:09:07;0.20;;;0.20;;
15490;SDS011;7847;50.930;4.336;2023-10-09T06:11:43;0.20;;;0.20;;
15490;SDS011;7847;50.930;4.336;2023-10-09T06:14:21;0.20;;;0.20;;
15490;SDS011;7847;50.930;4.336;2023-10-09T06:16:51;0.20;;;0.20;;
15490;SDS011;7847;50.930;4.336;2023-10-09T06:19:29;0.20;;;0.20;;
15490;SDS011;7847;50.930;4.336;2023-10-09T06:21:57;0.20;;;0.20;;
15490;SDS011;7847;50.930;4.336;2023-10-09T06:24:43;0.30;;;0.30;;
15490;SDS011;7847;50.930;4.336;2023-10-09T06:27:18;0.20;;;0.20;;
15490;SDS011;7847;50.930;4.336;2023-10-09T06:29:56;0.20;;;0.20;;
15490;SDS011;7847;50.930;4.336;2023-10-09T06:32:41;0.20;;;0.20;;
15490;SDS011;7847;50.930;4.336;2023-10-09T06:35:28;0.20;;;0.20;;
15490;SDS011;7847;50.930;4.336;2023-10-09T06:37:58;0.30;;;0.30;;
15490;SDS011;7847;50.930;4.336;2023-10-09T06:40:27;0.20;;;0.20;;
15490;SDS011;7847;50.930;4.336;2023-10-09T06:43:12;0.20;;;0.20;;
15490;SDS011;7847;50.930;4.336;2023-10-09T06:45:50;0.20;;;0.20;;
15490;SDS011;7847;50.930;4.336;2023-10-09T06:48:22;0.20;;;0.20;;
15490;SDS011;7847;50.930;4.336;2023-10-09T06:51:04;0.20;;;0.20;;
15490;SDS011;7847;50.930;4.336;2023-10-09T06:53:50;0.20;;;0.20;;
15490;SDS011;7847;50.930;4.336;2023-10-09T06:56:16;0.20;;;0.20;;
15490;SDS011;7847;50.930;4.336;2023-10-09T06:59:08;0.20;;;0.20;;
15490;SDS011;7847;50.930;4.336;2023-10-09T07:01:49;0.20;;;0.20;;
15490;SDS011;7847;50.930;4.336;2023-10-09T07:04:35;0.20;;;0.20;;
15490;SDS011;7847;50.930;4.336;2023-10-09T07:07:02;0.30;;;0.30;;
15490;SDS011;7847;50.930;4.336;2023-10-09T07:09:34;0.20;;;0.20;;
15490;SDS011;7847;50.930;4.336;2023-10-09T07:12:19;0.20;;;0.20;;
15490;SDS011;7847;50.930;4.336;2023-10-09T07:14:50;0.20;;;0.20;;
15490;SDS011;7847;50.930;4.336;2023-10-09T07:17:26;0.20;;;0.20;;
15490;SDS011;7847;50.930;4.336;2023-10-09T07:19:58;0.28;;;0.28;;
15490;SDS011;7847;50.930;4.336;2023-10-09T07:22:41;0.20;;;0.20;;
15490;SDS011;7847;50.930;4.336;2023-10-09T07:25:22;0.20;;;0.20;;
15490;SDS011;7847;50.930;4.336;2023-10-09T07:28:08;0.20;;;0.20;;
15490;SDS011;7847;50.930;4.336;2023-10-09T07:30:46;0.20;;;0.20;;
15490;SDS011;7847;50.930;4.336;2023-10-09T07:33:12;0.20;;;0.20;;
15490;SDS011;7847;50.930;4.336;2023-10-09T07:35:45;0.20;;;0.20;;
15490;SDS011;7847;50.930;4.336;2023-10-09T07:38:18;0.20;;;0.20;;
15490;SDS011;7847;50.930;4.336;2023-10-09T07:40:46;0.20;;;0.20;;
15490;SDS011;7847;50.930;4.336;2023-10-09T07:43:38;0.20;;;0.20;;
15490;SDS011;7847;50.930;4.336;2023-10-09T07:46:08;0.20;;;0.20;;
15490;SDS011;7847;50.930;4.336;2023-10-09T07:48:53;0.20;;;0.20;;
15490;SDS011;7847;50.930;4.336;2023-10-09T07:51:21;0.20;;;0.20;;
15490;SDS011;7847;50.930;4.336;2023-10-09T07:53:49;0.20;;;0.20;;
15490;SDS011;7847;50.930;4.336;2023-10-09T07:56:22;0.20;;;0.20;;
15490;SDS011;7847;50.930;4.336;2023-10-09T07:58:48;0.20;;;0.20;;
15490;SDS011;7847;50.930;4.336;2023-10-09T08:01:14;0.20;;;0.20;;
15490;SDS011;7847;50.930;4.336;2023-10-09T08:03:46;0.20;;;0.20;;
15490;SDS011;7847;50.930;4.336;2023-10-09T08:06:12;0.20;;;0.20;;
15490;SDS011;7847;50.930;4.336;2023-10-09T08:08:57;0.20;;;0.20;;
15490;SDS011;7847;50.930;4.336;2023-10-09T08:11:41;0.20;;;0.20;;
15490;SDS011;7847;50.930;4.336;2023-10-09T08:14:08;0.20;;;0.20;;
15490;SDS011;7847;50.930;4.336;2023-10-09T08:16:52;0.20;;;0.20;;
15490;SDS011;7847;50.930;4.336;2023-10-09T08:19:36;0.20;;;0.20;;
15490;SDS011;7847;50.930;4.336;2023-10-09T08:22:20;0.20;;;0.20;;
15490;SDS011;7847;50.930;4.336;2023-10-09T08:24:49;0.20;;;0.20;;
15490;SDS011;7847;50.930;4.336;2023-10-09T08:27:30;0.20;;;0.20;;
15490;SDS011;7847;50.930;4.336;2023-10-09T08:32:41;0.20;;;0.20;;
15490;SDS011;7847;50.930;4.336;2023-10-09T08:35:26;0.20;;;0.20;;
15490;SDS011;7847;50.930;4.336;2023-10-09T08:37:58;0.20;;;0.20;;
15490;SDS011;7847;50.930;4.336;2023-10-09T08:40:31;0.20;;;0.20;;
15490;SDS011;7847;50.930;4.336;2023-10-09T08:43:00;0.20;;;0.20;;
15490;SDS011;7847;50.930;4.336;2023-10-09T08:45:33;0.20;;;0.20;;
15490;SDS011;7847;50.930;4.336;2023-10-09T08:48:01;0.10;;;0.10;;
15490;SDS011;7847;50.930;4.336;2023-10-09T08:50:30;0.20;;;0.20;;
15490;SDS011;7847;50.930;4.336;2023-10-09T08:52:56;0.20;;;0.20;;
15490;SDS011;7847;50.930;4.336;2023-10-09T08:55:22;0.20;;;0.20;;
15490;SDS011;7847;50.930;4.336;2023-10-09T08:57:48;0.20;;;0.20;;
15490;SDS011;7847;50.930;4.336;2023-10-09T09:00:17;0.20;;;0.20;;
15490;SDS011;7847;50.930;4.336;2023-10-09T09:02:50;0.20;;;0.20;;
15490;SDS011;7847;50.930;4.336;2023-10-09T09:05:18;0.20;;;0.20;;
15490;SDS011;7847;50.930;4.336;2023-10-09T09:07:44;0.20;;;0.20;;
15490;SDS011;7847;50.930;4.336;2023-10-09T09:10:10;0.20;;;0.20;;
15490;SDS011;7847;50.930;4.336;2023-10-09T09:12:46;0.10;;;0.10;;
15490;SDS011;7847;50.930;4.336;2023-10-09T09:15:15;0.20;;;0.20;;
15490;SDS011;7847;50.930;4.336;2023-10-09T09:17:49;0.10;;;0.10;;
15490;SDS011;7847;50.930;4.336;2023-10-09T09:20:22;0.20;;;0.20;;
15490;SDS011;7847;50.930;4.336;2023-10-09T09:22:53;0.20;;;0.20;;
15490;SDS011;7847;50.930;4.336;2023-10-09T09:25:27;0.10;;;0.10;;
15490;SDS011;7847;50.930;4.336;2023-10-09T09:28:04;0.10;;;0.10;;
15490;SDS011;7847;50.930;4.336;2023-10-09T09:30:37;0.20;;;0.20;;
15490;SDS011;7847;50.930;4.336;2023-10-09T09:36:01;0.10;;;0.10;;
15490;SDS011;7847;50.930;4.336;2023-10-09T09:38:29;0.10;;;0.10;;
15490;SDS011;7847;50.930;4.336;2023-10-09T09:41:06;0.10;;;0.10;;
15490;SDS011;7847;50.930;4.336;2023-10-09T09:43:33;0.10;;;0.10;;
15490;SDS011;7847;50.930;4.336;2023-10-09T09:46:00;0.20;;;0.20;;
15490;SDS011;7847;50.930;4.336;2023-10-09T09:48:32;0.10;;;0.10;;
15490;SDS011;7847;50.930;4.336;2023-10-09T09:51:04;0.10;;;0.10;;
15490;SDS011;7847;50.930;4.336;2023-10-09T09:53:33;0.10;;;0.10;;
15490;SDS011;7847;50.930;4.336;2023-10-09T09:56:03;0.10;;;0.10;;
15490;SDS011;7847;50.930;4.336;2023-10-09T09:58:29;0.10;;;0.10;;
15490;SDS011;7847;50.930;4.336;2023-10-09T10:01:07;0.10;;;0.10;;
15490;SDS011;7847;50.930;4.336;2023-10-09T10:03:41;0.20;;;0.20;;
15490;SDS011;7847;50.930;4.336;2023-10-09T10:06:08;0.10;;;0.10;;
15490;SDS011;7847;50.930;4.336;2023-10-09T10:08:37;0.10;;;0.10;;
15490;SDS011;7847;50.930;4.336;2023-10-09T10:11:04;0.10;;;0.10;;
15490;SDS011;7847;50.930;4.336;2023-10-09T10:14:13;0.10;;;0.10;;
15490;SDS011;7847;50.930;4.336;2023-10-09T10:16:24;0.20;;;0.20;;
15490;SDS011;7847;50.930;4.336;2023-10-09T10:19:00;0.20;;;0.20;;
15490;SDS011;7847;50.930;4.336;2023-10-09T10:21:33;0.10;;;0.10;;
15490;SDS011;7847;50.930;4.336;2023-10-09T10:24:40;0.20;;;0.20;;
15490;SDS011;7847;50.930;4.336;2023-10-09T10:30:52;0.10;;;0.10;;
15490;SDS011;7847;50.930;4.336;2023-10-09T10:35:16;0.10;;;0.10;;
15490;SDS011;7847;50.930;4.336;2023-10-09T10:37:45;0.10;;;0.10;;
15490;SDS011;7847;50.930;4.336;2023-10-09T10:40:28;0.10;;;0.10;;
15490;SDS011;7847;50.930;4.336;2023-10-09T10:43:03;0.10;;;0.10;;
15490;SDS011;7847;50.930;4.336;2023-10-09T10:45:39;0.10;;;0.10;;
15490;SDS011;7847;50.930;4.336;2023-10-09T10:48:11;0.10;;;0.10;;
15490;SDS011;7847;50.930;4.336;2023-10-09T10:50:57;0.10;;;0.10;;
15490;SDS011;7847;50.930;4.336;2023-10-09T10:53:23;0.20;;;0.20;;
15490;SDS011;7847;50.930;4.336;2023-10-09T10:56:02;0.10;;;0.10;;
15490;SDS011;7847;50.930;4.336;2023-10-09T10:58:52;0.10;;;0.10;;
15490;SDS011;7847;50.930;4.336;2023-10-09T11:01:30;0.20;;;0.20;;
15490;SDS011;7847;50.930;4.336;2023-10-09T11:04:18;0.10;;;0.10;;
15490;SDS011;7847;50.930;4.336;2023-10-09T11:06:53;0.10;;;0.10;;
15490;SDS011;7847;50.930;4.336;2023-10-09T11:09:53;0.13;;;0.13;;
15490;SDS011;7847;50.930;4.336;2023-10-09T11:12:26;0.15;;;0.15;;
15490;SDS011;7847;50.930;4.336;2023-10-09T11:15:03;0.10;;;0.10;;
15490;SDS011;7847;50.930;4.336;2023-10-09T11:17:57;0.10;;;0.10;;
15490;SDS011;7847;50.930;4.336;2023-10-09T11:20:24;0.10;;;0.10;;
15490;SDS011;7847;50.930;4.336;2023-10-09T11:22:51;0.10;;;0.10;;
15490;SDS011;7847;50.930;4.336;2023-10-09T11:25:33;0.10;;;0.10;;
15490;SDS011;7847;50.930;4.336;2023-10-09T11:28:00;0.10;;;0.10;;
15490;SDS011;7847;50.930;4.336;2023-10-09T11:30:46;0.10;;;0.10;;
15490;SDS011;7847;50.930;4.336;2023-10-09T11:33:12;0.10;;;0.10;;
15490;SDS011;7847;50.930;4.336;2023-10-09T11:35:42;0.10;;;0.10;;
15490;SDS011;7847;50.930;4.336;2023-10-09T11:38:22;0.10;;;0.10;;
15490;SDS011;7847;50.930;4.336;2023-10-09T11:40:48;0.10;;;0.10;;
15490;SDS011;7847;50.930;4.336;2023-10-09T11:43:17;0.10;;;0.10;;
15490;SDS011;7847;50.930;4.336;2023-10-09T11:45:49;0.10;;;0.10;;
15490;SDS011;7847;50.930;4.336;2023-10-09T11:48:21;0.10;;;0.10;;
15490;SDS011;7847;50.930;4.336;2023-10-09T11:50:58;0.10;;;0.10;;
15490;SDS011;7847;50.930;4.336;2023-10-09T11:53:39;0.10;;;0.10;;
15490;SDS011;7847;50.930;4.336;2023-10-09T11:56:08;0.10;;;0.10;;
15490;SDS011;7847;50.930;4.336;2023-10-09T11:58:46;0.10;;;0.10;;
15490;SDS011;7847;50.930;4.336;2023-10-09T12:01:15;0.10;;;0.10;;
15490;SDS011;7847;50.930;4.336;2023-10-09T12:03:42;0.10;;;0.10;;
15490;SDS011;7847;50.930;4.336;2023-10-09T12:06:09;0.10;;;0.10;;
15490;SDS011;7847;50.930;4.336;2023-10-09T12:08:39;0.10;;;0.10;;
15490;SDS011;7847;50.930;4.336;2023-10-09T12:11:05;0.10;;;0.10;;
15490;SDS011;7847;50.930;4.336;2023-10-09T12:13:37;0.08;;;0.08;;
15490;SDS011;7847;50.930;4.336;2023-10-09T12:16:03;0.10;;;0.10;;
15490;SDS011;7847;50.930;4.336;2023-10-09T12:18:36;0.00;;;0.00;;
15490;SDS011;7847;50.930;4.336;2023-10-09T12:21:05;0.00;;;0.00;;
15490;SDS011;7847;50.930;4.336;2023-10-09T12:23:31;0.10;;;0.10;;
15490;SDS011;7847;50.930;4.336;2023-10-09T12:26:04;0.00;;;0.00;;
15490;SDS011;7847;50.930;4.336;2023-10-09T12:28:30;0.05;;;0.05;;
15490;SDS011;7847;50.930;4.336;2023-10-09T12:30:58;0.10;;;0.10;;
15490;SDS011;7847;50.930;4.336;2023-10-09T12:33:27;0.10;;;0.10;;
15490;SDS011;7847;50.930;4.336;2023-10-09T12:35:53;0.00;;;0.00;;
15490;SDS011;7847;50.930;4.336;2023-10-09T12:38:25;0.10;;;0.10;;
15490;SDS011;7847;50.930;4.336;2023-10-09T12:43:33;0.10;;;0.10;;
15490;SDS011;7847;50.930;4.336;2023-10-09T12:46:06;0.10;;;0.10;;
15490;SDS011;7847;50.930;4.336;2023-10-09T12:48:33;0.10;;;0.10;;
15490;SDS011;7847;50.930;4.336;2023-10-09T12:51:00;0.10;;;0.10;;
15490;SDS011;7847;50.930;4.336;2023-10-09T12:53:31;0.10;;;0.10;;
15490;SDS011;7847;50.930;4.336;2023-10-09T12:55:58;0.10;;;0.10;;
15490;SDS011;7847;50.930;4.336;2023-10-09T12:58:24;0.10;;;0.10;;
15490;SDS011;7847;50.930;4.336;2023-10-09T13:00:51;0.10;;;0.10;;
15490;SDS011;7847;50.930;4.336;2023-10-09T13:03:19;0.00;;;0.00;;
15490;SDS011;7847;50.930;4.336;2023-10-09T13:05:47;0.10;;;0.10;;
15490;SDS011;7847;50.930;4.336;2023-10-09T13:08:21;0.10;;;0.10;;
15490;SDS011;7847;50.930;4.336;2023-10-09T13:10:48;0.10;;;0.10;;
15490;SDS011;7847;50.930;4.336;2023-10-09T13:13:23;0.00;;;0.00;;
15490;SDS011;7847;50.930;4.336;2023-10-09T13:15:49;0.10;;;0.10;;
15490;SDS011;7847;50.930;4.336;2023-10-09T13:18:15;0.10;;;0.10;;
15490;SDS011;7847;50.930;4.336;2023-10-09T13:20:41;0.10;;;0.10;;
15490;SDS011;7847;50.930;4.336;2023-10-09T13:23:07;0.10;;;0.10;;
15490;SDS011;7847;50.930;4.336;2023-10-09T13:25:33;0.10;;;0.10;;
15490;SDS011;7847;50.930;4.336;2023-10-09T13:28:04;0.10;;;0.10;;
15490;SDS011;7847;50.930;4.336;2023-10-09T13:30:31;0.10;;;0.10;;
15490;SDS011;7847;50.930;4.336;2023-10-09T13:33:04;0.10;;;0.10;;
15490;SDS011;7847;50.930;4.336;2023-10-09T13:35:30;0.10;;;0.10;;
15490;SDS011;7847;50.930;4.336;2023-10-09T13:38:03;0.10;;;0.10;;
15490;SDS011;7847;50.930;4.336;2023-10-09T13:40:34;0.10;;;0.10;;
15490;SDS011;7847;50.930;4.336;2023-10-09T13:43:02;0.10;;;0.10;;
15490;SDS011;7847;50.930;4.336;2023-10-09T13:45:30;0.10;;;0.10;;
15490;SDS011;7847;50.930;4.336;2023-10-09T13:47:58;0.10;;;0.10;;
15490;SDS011;7847;50.930;4.336;2023-10-09T13:50:24;0.10;;;0.10;;
15490;SDS011;7847;50.930;4.336;2023-10-09T13:52:57;0.10;;;0.10;;
15490;SDS011;7847;50.930;4.336;2023-10-09T13:55:23;0.08;;;0.08;;
15490;SDS011;7847;50.930;4.336;2023-10-09T13:57:56;0.10;;;0.10;;
15490;SDS011;7847;50.930;4.336;2023-10-09T14:00:22;0.10;;;0.10;;
15490;SDS011;7847;50.930;4.336;2023-10-09T14:02:59;0.10;;;0.10;;
15490;SDS011;7847;50.930;4.336;2023-10-09T14:05:27;0.10;;;0.10;;
15490;SDS011;7847;50.930;4.336;2023-10-09T14:07:53;0.10;;;0.10;;
15490;SDS011;7847;50.930;4.336;2023-10-09T14:10:22;0.10;;;0.10;;
15490;SDS011;7847;50.930;4.336;2023-10-09T14:12:51;0.10;;;0.10;;
15490;SDS011;7847;50.930;4.336;2023-10-09T14:15:19;0.10;;;0.10;;
15490;SDS011;7847;50.930;4.336;2023-10-09T14:17:45;0.10;;;0.10;;
15490;SDS011;7847;50.930;4.336;2023-10-09T14:20:20;0.10;;;0.10;;
15490;SDS011;7847;50.930;4.336;2023-10-09T14:22:57;0.10;;;0.10;;
15490;SDS011;7847;50.930;4.336;2023-10-09T14:25:31;0.00;;;0.00;;
15490;SDS011;7847;50.930;4.336;2023-10-09T14:27:57;0.10;;;0.10;;
15490;SDS011;7847;50.930;4.336;2023-10-09T14:30:23;0.10;;;0.10;;
15490;SDS011;7847;50.930;4.336;2023-10-09T14:32:56;0.00;;;0.00;;
15490;SDS011;7847;50.930;4.336;2023-10-09T14:35:22;0.10;;;0.10;;
15490;SDS011;7847;50.930;4.336;2023-10-09T14:37:55;0.10;;;0.10;;
15490;SDS011;7847;50.930;4.336;2023-10-09T14:40:22;0.10;;;0.10;;
15490;SDS011;7847;50.930;4.336;2023-10-09T14:42:55;0.10;;;0.10;;
15490;SDS011;7847;50.930;4.336;2023-10-09T14:45:23;0.10;;;0.10;;
15490;SDS011;7847;50.930;4.336;2023-10-09T14:47:51;0.05;;;0.05;;
15490;SDS011;7847;50.930;4.336;2023-10-09T14:50:18;0.10;;;0.10;;
15490;SDS011;7847;50.930;4.336;2023-10-09T14:52:47;0.10;;;0.10;;
15490;SDS011;7847;50.930;4.336;2023-10-09T14:55:13;0.10;;;0.10;;
15490;SDS011;7847;50.930;4.336;2023-10-09T14:57:45;0.10;;;0.10;;
15490;SDS011;7847;50.930;4.336;2023-10-09T15:00:11;0.10;;;0.10;;
15490;SDS011;7847;50.930;4.336;2023-10-09T15:02:39;0.10;;;0.10;;
15490;SDS011;7847;50.930;4.336;2023-10-09T15:05:05;0.00;;;0.00;;
15490;SDS011;7847;50.930;4.336;2023-10-09T15:07:39;0.10;;;0.10;;
15490;SDS011;7847;50.930;4.336;2023-10-09T15:10:06;0.10;;;0.10;;
15490;SDS011;7847;50.930;4.336;2023-10-09T15:12:34;0.00;;;0.00;;
15490;SDS011;7847;50.930;4.336;2023-10-09T15:15:05;0.00;;;0.00;;
15490;SDS011;7847;50.930;4.336;2023-10-09T15:17:38;0.00;;;0.00;;
15490;SDS011;7847;50.930;4.336;2023-10-09T15:20:08;0.10;;;0.10;;
15490;SDS011;7847;50.930;4.336;2023-10-09T15:22:38;0.10;;;0.10;;
15490;SDS011;7847;50.930;4.336;2023-10-09T15:25:04;0.00;;;0.00;;
15490;SDS011;7847;50.930;4.336;2023-10-09T15:27:31;0.00;;;0.00;;
15490;SDS011;7847;50.930;4.336;2023-10-09T15:29:57;0.10;;;0.10;;
15490;SDS011;7847;50.930;4.336;2023-10-09T15:32:23;0.10;;;0.10;;
15490;SDS011;7847;50.930;4.336;2023-10-09T15:34:54;0.10;;;0.10;;
15490;SDS011;7847;50.930;4.336;2023-10-09T15:37:21;0.00;;;0.00;;
15490;SDS011;7847;50.930;4.336;2023-10-09T15:39:48;0.10;;;0.10;;
15490;SDS011;7847;50.930;4.336;2023-10-09T15:42:15;0.10;;;0.10;;
15490;SDS011;7847;50.930;4.336;2023-10-09T15:44:41;0.10;;;0.10;;
15490;SDS011;7847;50.930;4.336;2023-10-09T15:47:07;0.10;;;0.10;;
15490;SDS011;7847;50.930;4.336;2023-10-09T15:49:33;0.10;;;0.10;;